createdAt,value
2018-02-20T00:02:16.081Z,100289.70
2018-02-20T00:04:43.550Z,100289.70
2018-02-20T00:07:11.026Z,100289.19
2018-02-20T00:09:38.507Z,100289.62
2018-02-20T00:12:06.046Z,100288.91
2018-02-20T00:14:33.529Z,100282.30
2018-02-20T00:17:01.013Z,100285.94
2018-02-20T00:19:28.501Z,100283.11
2018-02-20T00:21:56.026Z,100278.37
2018-02-20T00:24:23.615Z,100276.03
2018-02-20T00:26:51.091Z,100280.08
2018-02-20T00:29:18.563Z,100277.22
2018-02-20T00:31:46.112Z,100275.72
2018-02-20T00:34:13.600Z,100273.17
2018-02-20T00:36:41.079Z,100271.04
2018-02-20T00:39:08.629Z,100271.94
2018-02-20T00:41:36.541Z,100264.97
2018-02-20T00:44:04.007Z,100264.86
2018-02-20T00:46:31.546Z,100259.09
2018-02-20T00:48:59.026Z,100260.41
2018-02-20T00:51:26.540Z,100265.38
2018-02-20T00:53:54.014Z,100264.36
2018-02-20T00:56:21.495Z,100261.11
2018-02-20T00:58:49.005Z,100264.77
2018-02-20T01:01:16.482Z,100268.59
2018-02-20T01:03:44.063Z,100270.09
2018-02-20T01:06:12.432Z,100275.05
2018-02-20T01:08:39.923Z,100272.21
2018-02-20T01:11:07.462Z,100269.18
2018-02-20T01:13:34.970Z,100275.14
2018-02-20T01:16:02.449Z,100274.44
2018-02-20T01:18:29.929Z,100271.20
2018-02-20T01:20:57.406Z,100274.92
2018-02-20T01:23:24.940Z,100275.84
2018-02-20T01:25:52.623Z,100272.81
2018-02-20T01:28:20.206Z,100266.02
2018-02-20T01:30:47.763Z,100274.92
2018-02-20T01:33:17.085Z,100269.78
2018-02-20T01:35:44.687Z,100274.44
2018-02-20T01:38:12.175Z,100271.09
2018-02-20T01:40:39.640Z,100273.42
2018-02-20T01:43:07.180Z,100266.84
2018-02-20T01:45:34.783Z,100272.22
2018-02-20T01:48:02.304Z,100268.36
2018-02-20T01:50:29.791Z,100267.83
2018-02-20T01:52:57.306Z,100268.22
2018-02-20T01:55:24.840Z,100272.27
2018-02-20T01:57:52.315Z,100264.60
2018-02-20T02:00:19.857Z,100272.39
2018-02-20T02:02:47.318Z,100274.69
2018-02-20T02:05:14.804Z,100270.64
2018-02-20T02:07:42.373Z,100272.39
2018-02-20T02:10:09.965Z,100274.00
2018-02-20T02:12:37.511Z,100272.95
2018-02-20T02:15:05.035Z,100279.38
2018-02-20T02:17:32.478Z,100274.39
2018-02-20T02:19:59.954Z,100274.45
2018-02-20T02:22:27.465Z,100273.14
2018-02-20T02:24:54.930Z,100275.03
2018-02-20T02:27:22.410Z,100279.45
2018-02-20T02:29:49.886Z,100272.88
2018-02-20T02:32:17.393Z,100277.52
2018-02-20T02:34:44.875Z,100279.73
2018-02-20T02:37:12.421Z,100277.06
2018-02-20T02:39:39.905Z,100276.12
2018-02-20T02:42:07.475Z,100282.67
2018-02-20T02:44:34.946Z,100280.00
2018-02-20T02:47:02.437Z,100281.72
2018-02-20T02:49:29.910Z,100280.46
2018-02-20T02:51:57.378Z,100281.84
2018-02-20T02:54:24.890Z,100282.73
2018-02-20T02:56:52.364Z,100283.20
2018-02-20T02:59:19.865Z,100286.05
2018-02-20T03:01:47.339Z,100282.41
2018-02-20T03:04:14.916Z,100281.84
2018-02-20T03:06:42.489Z,100280.87
2018-02-20T03:09:10.060Z,100282.00
2018-02-20T03:11:37.524Z,100282.11
2018-02-20T03:14:05.045Z,100281.72
2018-02-20T03:16:32.544Z,100280.63
2018-02-20T03:19:00.043Z,100280.70
2018-02-20T03:21:27.624Z,100281.03
2018-02-20T03:23:55.093Z,100284.57
2018-02-20T03:26:22.576Z,100283.98
2018-02-20T03:28:50.039Z,100291.41
2018-02-20T03:31:17.597Z,100282.22
2018-02-20T03:33:45.772Z,100278.90
2018-02-20T03:36:13.245Z,100279.59
2018-02-20T03:38:40.726Z,100277.12
2018-02-20T03:41:08.215Z,100279.23
2018-02-20T03:43:35.689Z,100281.39
2018-02-20T03:46:03.154Z,100286.35
2018-02-20T03:48:30.724Z,100283.55
2018-02-20T03:50:58.461Z,100283.66
2018-02-20T03:53:25.921Z,100284.17
2018-02-20T03:55:53.406Z,100286.10
2018-02-20T03:58:20.872Z,100288.03
2018-02-20T04:00:48.399Z,100289.56
2018-02-20T04:03:15.873Z,100283.47
2018-02-20T04:05:43.346Z,100285.70
2018-02-20T04:08:10.832Z,100286.03
2018-02-20T04:10:38.349Z,100284.05
2018-02-20T04:13:05.908Z,100283.47
2018-02-20T04:15:33.439Z,100281.16
2018-02-20T04:18:01.031Z,100279.02
2018-02-20T04:20:28.553Z,100278.77
2018-02-20T04:22:56.026Z,100281.86
2018-02-20T04:25:23.516Z,100276.17
2018-02-20T04:27:51.022Z,100271.20
2018-02-20T04:30:18.494Z,100272.63
2018-02-20T04:32:45.981Z,100274.27
2018-02-20T04:35:13.452Z,100278.11
2018-02-20T04:37:40.948Z,100275.19
2018-02-20T04:40:08.407Z,100271.42
2018-02-20T04:42:35.953Z,100273.55
2018-02-20T04:45:06.397Z,100278.39
2018-02-20T04:47:33.862Z,100274.13
2018-02-20T04:50:01.382Z,100280.66
2018-02-20T04:52:28.954Z,100281.80
2018-02-20T04:54:56.426Z,100279.56
2018-02-20T04:57:23.898Z,100282.77
2018-02-20T04:59:51.394Z,100287.11
2018-02-20T05:02:18.876Z,100281.09
2018-02-20T05:04:46.364Z,100291.83
2018-02-20T05:07:13.877Z,100281.61
2018-02-20T05:09:41.463Z,100286.31
2018-02-20T05:12:09.029Z,100289.05
2018-02-20T05:14:36.511Z,100282.78
2018-02-20T05:17:03.995Z,100281.06
2018-02-20T05:19:31.474Z,100280.36
2018-02-20T05:21:58.954Z,100280.03
2018-02-20T05:24:26.456Z,100288.09
2018-02-20T05:26:53.925Z,100292.39
2018-02-20T05:29:21.423Z,100285.23
2018-02-20T05:31:48.897Z,100282.68
2018-02-20T05:34:16.412Z,100285.88
2018-02-20T05:36:43.889Z,100292.73
2018-02-20T05:39:11.402Z,100289.41
2018-02-20T05:41:38.890Z,100297.06
2018-02-20T05:44:06.363Z,100295.97
2018-02-20T05:46:33.940Z,100298.33
2018-02-20T05:49:01.400Z,100298.90
2018-02-20T05:51:28.873Z,100291.87
2018-02-20T05:53:56.444Z,100295.15
2018-02-20T05:56:23.944Z,100304.84
2018-02-20T05:58:51.495Z,100303.23
2018-02-20T06:01:18.952Z,100298.84
2018-02-20T06:03:46.525Z,100303.47
2018-02-20T06:06:13.989Z,100309.50
2018-02-20T06:08:41.465Z,100317.91
2018-02-20T06:11:08.994Z,100313.45
2018-02-20T06:13:36.573Z,100316.71
2018-02-20T06:16:04.089Z,100315.22
2018-02-20T06:18:31.650Z,100317.67
2018-02-20T06:20:59.108Z,100313.75
2018-02-20T06:23:26.583Z,100315.39
2018-02-20T06:25:54.121Z,100315.63
2018-02-20T06:28:21.591Z,100318.02
2018-02-20T06:30:49.095Z,100315.22
2018-02-20T06:33:16.579Z,100320.75
2018-02-20T06:35:44.152Z,100325.03
2018-02-20T06:38:12.061Z,100328.32
2018-02-20T06:40:39.532Z,100328.27
2018-02-20T06:43:06.991Z,100323.55
2018-02-20T06:45:34.464Z,100320.05
2018-02-20T06:48:02.068Z,100322.50
2018-02-20T06:50:29.619Z,100323.77
2018-02-20T06:52:57.134Z,100328.20
2018-02-20T06:55:24.601Z,100327.77
2018-02-20T06:57:52.128Z,100322.63
2018-02-20T07:00:19.585Z,100323.42
2018-02-20T07:02:47.086Z,100325.53
2018-02-20T07:05:14.611Z,100314.34
2018-02-20T07:07:42.083Z,100322.22
2018-02-20T07:10:09.558Z,100321.92
2018-02-20T07:12:37.122Z,100315.97
2018-02-20T07:15:04.588Z,100318.20
2018-02-20T07:17:32.081Z,100323.33
2018-02-20T07:19:59.648Z,100319.31
2018-02-20T07:22:27.213Z,100320.69
2018-02-20T07:24:54.702Z,100328.78
2018-02-20T07:27:22.160Z,100323.32
2018-02-20T07:29:49.632Z,100328.66
2018-02-20T07:32:17.131Z,100327.50
2018-02-20T07:34:44.609Z,100322.70
2018-02-20T07:37:12.153Z,100319.47
2018-02-20T07:39:39.710Z,100320.69
2018-02-20T07:42:07.295Z,100323.14
2018-02-20T07:44:34.792Z,100320.45
2018-02-20T07:47:02.325Z,100325.14
2018-02-20T07:49:29.801Z,100324.19
2018-02-20T07:51:57.384Z,100326.59
2018-02-20T07:54:24.945Z,100324.17
2018-02-20T07:56:52.407Z,100319.51
2018-02-20T07:59:19.928Z,100323.84
2018-02-20T08:01:47.392Z,100326.04
2018-02-20T08:04:14.877Z,100325.56
2018-02-20T08:06:42.351Z,100323.12
2018-02-20T08:09:09.838Z,100324.42
2018-02-20T08:11:38.518Z,100322.73
2018-02-20T08:14:05.997Z,100319.04
2018-02-20T08:16:33.508Z,100320.72
2018-02-20T08:19:00.971Z,100317.34
2018-02-20T08:21:28.446Z,100321.66
2018-02-20T08:23:55.941Z,100323.50
2018-02-20T08:26:23.418Z,100319.35
2018-02-20T08:28:50.985Z,100329.45
2018-02-20T08:31:18.533Z,100329.96
2018-02-20T08:33:46.019Z,100335.20
2018-02-20T08:36:13.589Z,100337.41
2018-02-20T08:38:41.093Z,100333.03
2018-02-20T08:41:08.581Z,100330.05
2018-02-20T08:43:36.046Z,100330.73
2018-02-20T08:46:03.532Z,100324.81
2018-02-20T08:48:30.992Z,100328.59
2018-02-20T08:50:58.518Z,100321.42
2018-02-20T08:53:25.979Z,100323.62
2018-02-20T08:55:53.484Z,100319.28
2018-02-20T08:58:21.482Z,100319.98
2018-02-20T09:00:48.956Z,100320.42
2018-02-20T09:03:16.437Z,100313.06
2018-02-20T09:05:43.917Z,100307.67
2018-02-20T09:08:11.415Z,100307.34
2018-02-20T09:10:38.871Z,100303.49
2018-02-20T09:13:06.349Z,100300.70
2018-02-20T09:15:33.830Z,100294.18
2018-02-20T09:18:01.309Z,100299.34
2018-02-20T09:20:28.776Z,100294.23
2018-02-20T09:22:56.346Z,100294.52
2018-02-20T09:25:23.814Z,100289.20
2018-02-20T09:27:51.289Z,100293.77
2018-02-20T09:30:18.852Z,100293.17
2018-02-20T09:32:46.336Z,100294.05
2018-02-20T09:35:13.798Z,100290.69
2018-02-20T09:37:41.286Z,100292.91
2018-02-20T09:40:08.816Z,100289.64
2018-02-20T09:42:36.328Z,100287.73
2018-02-20T09:45:03.894Z,100290.72
2018-02-20T09:47:31.368Z,100295.28
2018-02-20T09:49:58.909Z,100290.79
2018-02-20T09:52:26.398Z,100290.68
2018-02-20T09:54:53.894Z,100296.34
2018-02-20T09:57:21.362Z,100297.81
2018-02-20T09:59:48.910Z,100294.34
2018-02-20T10:02:17.725Z,100296.76
2018-02-20T10:04:45.211Z,100298.50
2018-02-20T10:07:12.692Z,100294.14
2018-02-20T10:09:40.226Z,100299.98
2018-02-20T10:12:07.811Z,100299.64
2018-02-20T10:14:35.384Z,100303.59
2018-02-20T10:17:02.946Z,100302.56
2018-02-20T10:19:30.397Z,100301.84
2018-02-20T10:21:57.886Z,100298.73
2018-02-20T10:24:25.350Z,100291.85
2018-02-20T10:26:52.822Z,100295.91
2018-02-20T10:29:20.303Z,100295.38
2018-02-20T10:31:47.953Z,100290.58
2018-02-20T10:34:15.410Z,100292.36
2018-02-20T10:36:42.927Z,100287.34
2018-02-20T10:39:10.382Z,100288.66
2018-02-20T10:41:37.957Z,100293.07
2018-02-20T10:44:05.567Z,100285.90
2018-02-20T10:46:33.029Z,100286.77
2018-02-20T10:49:00.581Z,100285.72
2018-02-20T10:51:28.138Z,100278.88
2018-02-20T10:53:55.606Z,100278.36
2018-02-20T10:56:23.197Z,100274.72
2018-02-20T10:58:50.783Z,100277.00
2018-02-20T11:01:18.254Z,100281.80
2018-02-20T11:03:45.733Z,100274.22
2018-02-20T11:06:13.204Z,100277.09
2018-02-20T11:08:40.757Z,100272.20
2018-02-20T11:11:08.221Z,100274.91
2018-02-20T11:13:35.691Z,100266.61
2018-02-20T11:16:03.166Z,100269.22
2018-02-20T11:18:30.635Z,100273.66
2018-02-20T11:20:58.208Z,100261.75
2018-02-20T11:23:25.821Z,100264.33
2018-02-20T11:25:53.341Z,100262.47
2018-02-20T11:28:20.823Z,100263.77
2018-02-20T11:30:48.337Z,100260.17
2018-02-20T11:33:15.804Z,100262.38
2018-02-20T11:35:43.269Z,100254.52
2018-02-20T11:38:10.809Z,100254.59
2018-02-20T11:40:38.274Z,100250.36
2018-02-20T11:43:05.770Z,100247.73
2018-02-20T11:45:33.231Z,100247.45
2018-02-20T11:48:00.724Z,100249.61
2018-02-20T11:50:28.178Z,100250.51
2018-02-20T11:52:55.647Z,100250.44
2018-02-20T11:55:23.213Z,100247.45
2018-02-20T11:57:50.779Z,100241.95
2018-02-20T12:00:18.250Z,100235.56
2018-02-20T12:02:45.768Z,100234.79
2018-02-20T12:05:13.240Z,100230.48
2018-02-20T12:07:40.793Z,100229.27
2018-02-20T12:10:08.337Z,100221.66
2018-02-20T12:12:35.810Z,100236.38
2018-02-20T12:15:03.285Z,100227.67
2018-02-20T12:17:30.745Z,100219.98
2018-02-20T12:19:58.521Z,100225.61
2018-02-20T12:22:25.997Z,100221.86
2018-02-20T12:24:53.615Z,100219.97
2018-02-20T12:27:21.299Z,100213.50
2018-02-20T12:29:49.324Z,100219.02
2018-02-20T12:32:17.103Z,100217.78
2018-02-20T12:34:44.771Z,100210.83
2018-02-20T12:37:12.236Z,100214.59
2018-02-20T12:39:39.705Z,100209.98
2018-02-20T12:42:07.185Z,100213.25
2018-02-20T12:44:34.810Z,100205.39
2018-02-20T12:47:02.279Z,100210.59
2018-02-20T12:49:29.800Z,100208.72
2018-02-20T12:51:57.382Z,100210.56
2018-02-20T12:54:24.850Z,100215.95
2018-02-20T12:56:52.366Z,100215.41
2018-02-20T12:59:20.040Z,100218.02
2018-02-20T13:01:47.530Z,100214.08
2018-02-20T13:04:15.009Z,100218.18
2018-02-20T13:06:42.517Z,100220.01
2018-02-20T13:09:10.002Z,100217.63
2018-02-20T13:11:37.462Z,100214.92
2018-02-20T13:14:04.937Z,100214.91
2018-02-20T13:16:32.493Z,100221.48
2018-02-20T13:19:00.043Z,100220.37
2018-02-20T13:21:27.533Z,100222.91
2018-02-20T13:23:55.119Z,100216.78
2018-02-20T13:26:23.005Z,100215.05
2018-02-20T13:28:50.482Z,100223.22
2018-02-20T13:31:17.954Z,100211.84
2018-02-20T13:33:45.409Z,100217.27
2018-02-20T13:36:12.880Z,100214.39
2018-02-20T13:38:40.353Z,100211.05
2018-02-20T13:41:07.833Z,100218.36
2018-02-20T13:43:35.396Z,100219.73
2018-02-20T13:46:02.970Z,100216.23
2018-02-20T13:48:30.545Z,100216.53
2018-02-20T13:50:58.302Z,100210.94
2018-02-20T13:53:25.800Z,100214.61
2018-02-20T13:55:53.378Z,100213.97
2018-02-20T13:58:20.936Z,100218.58
2018-02-20T14:00:48.407Z,100220.73
2018-02-20T14:03:15.916Z,100223.80
2018-02-20T14:05:43.394Z,100220.15
2018-02-20T14:08:10.925Z,100222.68
2018-02-20T14:10:38.500Z,100221.76
2018-02-20T14:13:06.048Z,100233.43
2018-02-20T14:15:33.541Z,100235.59
2018-02-20T14:18:01.211Z,100232.65
2018-02-20T14:20:28.701Z,100231.64
2018-02-20T14:22:56.201Z,100230.66
2018-02-20T14:25:23.724Z,100236.45
2018-02-20T14:27:51.193Z,100232.39
2018-02-20T14:30:18.784Z,100234.73
2018-02-20T14:32:46.383Z,100233.89
2018-02-20T14:35:13.895Z,100234.90
2018-02-20T14:37:41.381Z,100230.73
2018-02-20T14:40:08.850Z,100241.84
2018-02-20T14:42:36.328Z,100241.91
2018-02-20T14:45:03.797Z,100246.73
2018-02-20T14:47:31.270Z,100248.38
2018-02-20T14:49:58.738Z,100244.36
2018-02-20T14:52:26.230Z,100243.70
2018-02-20T14:54:53.690Z,100249.88
2018-02-20T14:57:21.169Z,100253.13
2018-02-20T14:59:48.662Z,100252.16
2018-02-20T15:02:16.138Z,100254.27
2018-02-20T15:04:43.605Z,100258.08
2018-02-20T15:07:11.107Z,100258.17
2018-02-20T15:09:38.607Z,100257.33
2018-02-20T15:12:06.073Z,100259.72
2018-02-20T15:14:33.581Z,100266.00
2018-02-20T15:17:01.111Z,100257.91
2018-02-20T15:19:28.583Z,100264.00
2018-02-20T15:21:56.219Z,100268.65
2018-02-20T15:24:23.711Z,100272.76
2018-02-20T15:26:51.183Z,100273.41
2018-02-20T15:29:18.677Z,100276.42
2018-02-20T15:31:46.141Z,100282.95
2018-02-20T15:34:13.776Z,100287.28
2018-02-20T15:36:41.304Z,100293.69
2018-02-20T15:39:08.774Z,100296.73
2018-02-20T15:41:36.706Z,100291.37
2018-02-20T15:44:04.224Z,100297.91
2018-02-20T15:46:31.764Z,100298.09
2018-02-20T15:48:59.192Z,100293.17
2018-02-20T15:51:26.672Z,100299.31
2018-02-20T15:53:54.188Z,100297.86
2018-02-20T15:56:21.779Z,100305.59
2018-02-20T15:58:49.382Z,100311.13
2018-02-20T16:01:16.978Z,100321.05
2018-02-20T16:03:44.504Z,100325.27
2018-02-20T16:06:12.006Z,100327.23
2018-02-20T16:08:39.474Z,100328.37
2018-02-20T16:11:06.936Z,100333.30
2018-02-20T16:13:34.491Z,100332.29
2018-02-20T16:16:15.849Z,100346.12
2018-02-20T16:18:43.337Z,100337.95
2018-02-20T16:21:10.913Z,100338.22
2018-02-20T16:23:38.370Z,100344.84
2018-02-20T16:26:05.857Z,100342.08
2018-02-20T16:28:33.337Z,100345.45
2018-02-20T16:31:00.808Z,100349.48
2018-02-20T16:33:28.414Z,100351.75
2018-02-20T16:35:55.944Z,100354.72
2018-02-20T16:38:23.471Z,100359.96
2018-02-20T16:40:51.015Z,100361.66
2018-02-20T16:43:18.583Z,100360.92
2018-02-20T16:45:46.137Z,100364.84
2018-02-20T16:48:13.616Z,100364.55
2018-02-20T16:50:41.337Z,100371.07
2018-02-20T16:53:08.839Z,100363.27
2018-02-20T16:55:36.290Z,100376.14
2018-02-20T16:58:03.766Z,100377.19
2018-02-20T17:00:31.280Z,100369.03
2018-02-20T17:02:58.748Z,100380.78
2018-02-20T17:05:27.501Z,100376.97
2018-02-20T17:07:54.992Z,100377.61
2018-02-20T17:10:22.483Z,100389.34
2018-02-20T17:12:49.967Z,100389.83
2018-02-20T17:15:17.439Z,100392.20
2018-02-20T17:17:45.002Z,100386.39
2018-02-20T17:20:12.601Z,100392.80
2018-02-20T17:22:40.109Z,100394.08
2018-02-20T17:25:07.666Z,100392.80
2018-02-20T17:27:35.155Z,100396.84
2018-02-20T17:30:02.632Z,100396.08
2018-02-20T17:32:30.099Z,100395.03
2018-02-20T17:34:57.690Z,100397.70
2018-02-20T17:37:25.218Z,100403.20
2018-02-20T17:39:52.709Z,100407.89
2018-02-20T17:42:20.246Z,100413.70
2018-02-20T17:44:47.849Z,100417.66
2018-02-20T17:47:15.354Z,100418.78
2018-02-20T17:49:42.822Z,100419.78
2018-02-20T17:52:10.317Z,100416.89
2018-02-20T17:54:37.782Z,100419.66
2018-02-20T17:57:05.277Z,100419.34
2018-02-20T17:59:32.740Z,100423.55
2018-02-20T18:02:00.215Z,100426.75
2018-02-20T18:04:27.691Z,100431.31
2018-02-20T18:06:55.238Z,100433.42
2018-02-20T18:09:22.872Z,100433.95
2018-02-20T18:11:50.500Z,100439.17
2018-02-20T18:14:17.990Z,100441.84
2018-02-20T18:16:45.545Z,100443.52
2018-02-20T18:19:13.020Z,100440.78
2018-02-20T18:21:40.600Z,100443.83
2018-02-20T18:24:08.133Z,100444.57
2018-02-20T18:26:35.631Z,100436.98
2018-02-20T18:29:03.116Z,100437.21
2018-02-20T18:31:30.581Z,100442.09
2018-02-20T18:33:58.121Z,100442.20
2018-02-20T18:36:25.593Z,100445.05
2018-02-20T18:38:53.602Z,100444.34
2018-02-20T18:41:21.102Z,100447.50
2018-02-20T18:43:48.587Z,100455.55
2018-02-20T18:46:16.138Z,100452.33
2018-02-20T18:48:43.612Z,100461.25
2018-02-20T18:51:11.158Z,100466.45
2018-02-20T18:53:38.642Z,100464.63
2018-02-20T18:56:06.117Z,100464.55
2018-02-20T18:58:33.591Z,100466.05
2018-02-20T19:01:01.390Z,100465.96
2018-02-20T19:03:28.928Z,100476.65
2018-02-20T19:05:56.541Z,100478.27
2018-02-20T19:08:24.025Z,100476.64
2018-02-20T19:10:51.510Z,100481.20
2018-02-20T19:13:19.929Z,100482.43
2018-02-20T19:15:47.446Z,100483.94
2018-02-20T19:18:14.923Z,100486.79
2018-02-20T19:20:42.407Z,100489.12
2018-02-20T19:23:09.925Z,100492.08
2018-02-20T19:25:37.409Z,100489.33
2018-02-20T19:28:04.891Z,100490.85
2018-02-20T19:30:32.380Z,100502.01
2018-02-20T19:32:59.853Z,100502.61
2018-02-20T19:35:27.319Z,100505.56
2018-02-20T19:37:54.881Z,100498.16
2018-02-20T19:40:22.490Z,100508.28
2018-02-20T19:42:50.067Z,100502.81
2018-02-20T19:45:17.557Z,100504.81
2018-02-20T19:47:45.033Z,100506.25
2018-02-20T19:50:12.495Z,100509.05
2018-02-20T19:52:40.113Z,100503.89
2018-02-20T19:55:07.653Z,100505.59
2018-02-20T19:57:36.016Z,100508.33
2018-02-20T20:00:03.511Z,100505.59
2018-02-20T20:02:31.051Z,100502.56
2018-02-20T20:04:58.529Z,100504.89
2018-02-20T20:07:26.065Z,100505.97
2018-02-20T20:09:53.632Z,100503.55
2018-02-20T20:12:21.154Z,100505.95
2018-02-20T20:14:48.939Z,100510.48
2018-02-20T20:17:16.397Z,100512.29
2018-02-20T20:19:43.896Z,100516.79
2018-02-20T20:22:11.513Z,100520.41
2018-02-20T20:24:38.986Z,100523.52
2018-02-20T20:27:06.482Z,100525.77
2018-02-20T20:29:33.938Z,100528.87
2018-02-20T20:32:01.547Z,100532.23
2018-02-20T20:34:29.169Z,100539.23
2018-02-20T20:36:56.645Z,100533.38
2018-02-20T20:39:25.475Z,100542.84
2018-02-20T20:41:52.953Z,100538.66
2018-02-20T20:44:20.462Z,100544.10
2018-02-20T20:46:47.955Z,100545.23
2018-02-20T20:49:15.441Z,100545.05
2018-02-20T20:51:42.908Z,100540.31
2018-02-20T20:54:10.409Z,100548.61
2018-02-20T20:56:37.885Z,100542.62
2018-02-20T20:59:05.347Z,100549.64
2018-02-20T21:01:32.834Z,100556.91
2018-02-20T21:04:00.392Z,100553.00
2018-02-20T21:06:27.879Z,100552.16
2018-02-20T21:08:55.356Z,100550.33
2018-02-20T21:11:22.843Z,100549.41
2018-02-20T21:13:50.313Z,100557.30
2018-02-20T21:16:17.852Z,100549.91
2018-02-20T21:18:45.349Z,100549.28
2018-02-20T21:21:13.007Z,100548.20
2018-02-20T21:23:40.486Z,100544.16
2018-02-20T21:26:07.960Z,100548.27
2018-02-20T21:28:35.440Z,100547.45
2018-02-20T21:31:02.985Z,100551.46
2018-02-20T21:33:30.505Z,100550.51
2018-02-20T21:35:58.076Z,100553.41
2018-02-20T21:38:25.570Z,100551.23
2018-02-20T21:40:53.062Z,100550.81
2018-02-20T21:43:20.569Z,100553.78
2018-02-20T21:45:48.107Z,100556.47
2018-02-20T21:48:15.575Z,100556.86
2018-02-20T21:50:43.164Z,100551.77
2018-02-20T21:53:10.641Z,100557.38
2018-02-20T21:55:38.128Z,100557.94
2018-02-20T21:58:05.607Z,100563.34
2018-02-20T22:00:33.099Z,100561.48
2018-02-20T22:03:00.568Z,100562.24
2018-02-20T22:05:28.080Z,100556.23
2018-02-20T22:07:55.561Z,100551.27
2018-02-20T22:10:23.143Z,100557.73
2018-02-20T22:12:50.628Z,100556.46
2018-02-20T22:15:18.101Z,100556.36
2018-02-20T22:17:45.646Z,100560.28
2018-02-20T22:20:13.142Z,100559.45
2018-02-20T22:22:40.649Z,100563.48
2018-02-20T22:25:08.158Z,100565.66
2018-02-20T22:27:35.640Z,100565.64
2018-02-20T22:30:03.209Z,100570.47
2018-02-20T22:32:30.762Z,100572.53
2018-02-20T22:34:58.241Z,100570.80
2018-02-20T22:37:25.735Z,100573.59
2018-02-20T22:39:53.210Z,100571.83
2018-02-20T22:42:21.584Z,100569.55
2018-02-20T22:44:49.137Z,100568.63
2018-02-20T22:47:16.613Z,100565.34
2018-02-20T22:49:44.193Z,100563.44
2018-02-20T22:52:11.754Z,100561.42
2018-02-20T22:54:39.249Z,100565.28
2018-02-20T22:57:06.772Z,100564.45
2018-02-20T22:59:34.422Z,100561.07
2018-02-20T23:02:01.882Z,100563.31
2018-02-20T23:04:29.468Z,100570.88
2018-02-20T23:06:56.990Z,100567.34
2018-02-20T23:09:24.600Z,100565.89
2018-02-20T23:11:52.104Z,100568.85
2018-02-20T23:14:19.578Z,100576.14
2018-02-20T23:16:47.061Z,100573.68
2018-02-20T23:19:14.565Z,100586.37
2018-02-20T23:21:42.049Z,100580.76
2018-02-20T23:24:09.543Z,100584.16
2018-02-20T23:26:37.066Z,100593.98
2018-02-20T23:29:04.641Z,100595.22
2018-02-20T23:31:32.194Z,100594.81
2018-02-20T23:33:59.662Z,100598.58
2018-02-20T23:36:27.152Z,100592.42
2018-02-20T23:38:54.638Z,100591.91
2018-02-20T23:41:22.191Z,100592.02
2018-02-20T23:43:49.666Z,100596.96
2018-02-20T23:46:17.161Z,100599.59
2018-02-20T23:48:45.326Z,100604.20
2018-02-20T23:51:18.474Z,100592.66
2018-02-20T23:53:46.308Z,100600.13
2018-02-20T23:56:13.780Z,100598.69
2018-02-20T23:58:41.259Z,100599.90
